createdAt,value
2023-05-05T03:24:42.425Z,98315.41
2023-05-05T03:28:02.736Z,98225.47
2023-05-05T03:35:46.764Z,98345.91
2023-05-05T03:38:14.048Z,98340.06
2023-05-05T03:40:44.568Z,98350.47
2023-05-05T03:43:14.180Z,98354.41
2023-05-05T03:45:40.808Z,98355.72
2023-05-05T03:48:09.559Z,98340.00
2023-05-05T03:50:37.817Z,98365.91
2023-05-05T03:53:04.419Z,98341.97
2023-05-05T03:55:30.951Z,98356.66
2023-05-05T03:57:57.582Z,98362.75
2023-05-05T04:00:24.153Z,98355.94
2023-05-05T04:02:51.186Z,98362.84
2023-05-05T04:05:19.852Z,98357.16
2023-05-05T04:07:46.824Z,98363.16
2023-05-05T04:10:14.712Z,98362.75
2023-05-05T04:12:41.287Z,98377.50
2023-05-05T04:15:08.810Z,98369.00
2023-05-05T04:17:35.732Z,98357.09
2023-05-05T04:20:03.216Z,98371.75
2023-05-05T04:22:32.326Z,98372.34
2023-05-05T04:24:59.383Z,98368.44
2023-05-05T04:27:26.212Z,98368.91
2023-05-05T04:29:53.602Z,98374.75
2023-05-05T04:32:20.158Z,98364.84
2023-05-05T04:34:48.067Z,98363.38
2023-05-05T04:37:14.578Z,98362.28
2023-05-05T04:39:41.549Z,98362.22
2023-05-05T04:42:08.985Z,98365.63
2023-05-05T04:44:36.489Z,98364.34
2023-05-05T04:47:04.197Z,98374.41
2023-05-05T04:49:31.751Z,98373.25
2023-05-05T04:51:58.906Z,98375.53
2023-05-05T04:54:25.603Z,98374.25
2023-05-05T04:56:52.308Z,98374.19
2023-05-05T04:59:18.827Z,98385.44
2023-05-05T05:01:46.345Z,98388.25
2023-05-05T05:04:13.703Z,98383.09
2023-05-05T05:06:40.190Z,98397.78
2023-05-05T05:09:06.746Z,98394.72
2023-05-05T05:11:33.362Z,98405.13
2023-05-05T05:14:00.191Z,98406.06
2023-05-05T05:16:26.776Z,98406.13
2023-05-05T05:18:53.445Z,98426.78
2023-05-05T05:21:20.443Z,98424.66
2023-05-05T05:23:47.357Z,98418.72
2023-05-05T05:26:13.893Z,98411.59
2023-05-05T05:28:41.749Z,98415.28
2023-05-05T05:31:08.441Z,98412.63
2023-05-05T05:33:35.042Z,98415.66
2023-05-05T05:36:01.806Z,98414.00
2023-05-05T05:38:28.371Z,98407.03
2023-05-05T05:40:58.288Z,98405.56
2023-05-05T05:43:24.952Z,98401.31
2023-05-05T05:45:51.955Z,98406.31
2023-05-05T05:48:21.333Z,98405.16
2023-05-05T05:50:47.981Z,98411.94
2023-05-05T05:53:14.462Z,98412.72
2023-05-05T05:55:41.131Z,98410.44
2023-05-05T05:58:08.032Z,98414.28
2023-05-05T06:00:34.650Z,98411.88
2023-05-05T06:03:06.587Z,98424.19
2023-05-05T06:05:36.228Z,98415.31
2023-05-05T06:08:02.910Z,98415.03
2023-05-05T06:10:31.298Z,98398.50
2023-05-05T06:13:05.304Z,98407.34
2023-05-05T06:15:33.309Z,98412.69
2023-05-05T06:18:02.085Z,98402.59
2023-05-05T06:20:28.649Z,98401.56
2023-05-05T06:22:56.204Z,98409.50
2023-05-05T06:25:23.413Z,98405.72
2023-05-05T06:27:51.199Z,98407.47
2023-05-05T06:30:17.830Z,98408.66
2023-05-05T06:32:44.382Z,98411.84
2023-05-05T06:35:11.037Z,98414.41
2023-05-05T06:37:37.620Z,98392.16
2023-05-05T06:40:04.886Z,98404.53
2023-05-05T06:42:32.173Z,98401.16
2023-05-05T06:44:59.390Z,98402.63
2023-05-05T06:47:25.994Z,98401.81
2023-05-05T06:49:52.597Z,98395.75
2023-05-05T06:52:19.124Z,98391.69
2023-05-05T06:54:45.735Z,98392.00
2023-05-05T06:57:12.199Z,98392.84
2023-05-05T06:59:38.676Z,98388.84
2023-05-05T07:02:05.186Z,98384.16
2023-05-05T07:04:31.826Z,98396.00
2023-05-05T07:06:58.440Z,98396.97
2023-05-05T07:09:25.005Z,98395.41
2023-05-05T07:11:51.740Z,98390.50
2023-05-05T07:14:18.239Z,98382.66
2023-05-05T07:16:44.729Z,98383.03
2023-05-05T07:19:11.202Z,98384.81
2023-05-05T07:21:39.587Z,98375.59
2023-05-05T07:24:06.482Z,98380.66
2023-05-05T07:26:33.128Z,98384.91
2023-05-05T07:28:59.722Z,98387.41
2023-05-05T07:31:26.561Z,98390.19
2023-05-05T07:33:53.411Z,98387.34
2023-05-05T07:36:20.360Z,98387.72
2023-05-05T07:38:46.842Z,98387.25
2023-05-05T07:41:13.464Z,98388.31
2023-05-05T07:43:42.251Z,98392.00
2023-05-05T07:46:10.775Z,98385.00
2023-05-05T07:48:37.386Z,98391.34
2023-05-05T07:51:03.983Z,98381.13
2023-05-05T07:53:30.898Z,98385.16
2023-05-05T07:55:57.483Z,98386.41
2023-05-05T07:58:24.117Z,98385.28
2023-05-05T08:00:51.238Z,98390.69
2023-05-05T08:03:19.948Z,98392.28
2023-05-05T08:05:46.841Z,98389.94
2023-05-05T08:08:13.356Z,98394.34
2023-05-05T08:10:39.912Z,98386.88
2023-05-05T08:13:06.441Z,98398.72
2023-05-05T08:15:33.017Z,98388.22
2023-05-05T08:17:59.739Z,98384.19
2023-05-05T08:20:29.023Z,98385.66
2023-05-05T08:22:55.736Z,98386.56
2023-05-05T08:25:22.484Z,98392.53
2023-05-05T08:27:48.992Z,98386.22
2023-05-05T08:30:17.146Z,98378.91
2023-05-05T08:32:43.737Z,98382.06
2023-05-05T08:35:10.636Z,98379.75
2023-05-05T08:37:37.525Z,98380.16
2023-05-05T08:40:05.358Z,98375.78
2023-05-05T08:42:37.242Z,98377.41
2023-05-05T08:45:05.824Z,98378.75
2023-05-05T08:47:32.874Z,98384.41
2023-05-05T08:49:59.751Z,98381.63
2023-05-05T08:52:31.733Z,98383.09
2023-05-05T08:55:06.336Z,98383.72
2023-05-05T08:57:43.906Z,98378.66
2023-05-05T09:00:12.787Z,98382.25
2023-05-05T09:02:40.625Z,98376.81
2023-05-05T09:05:08.160Z,98382.97
2023-05-05T09:07:35.355Z,98374.75
2023-05-05T09:10:08.043Z,98367.41
2023-05-05T09:12:35.353Z,98364.84
2023-05-05T09:15:03.598Z,98354.72
2023-05-05T09:17:30.307Z,98365.78
2023-05-05T09:20:08.159Z,98346.91
2023-05-05T09:22:40.175Z,98356.38
2023-05-05T09:25:10.168Z,98354.34
2023-05-05T09:27:42.305Z,98354.47
2023-05-05T09:30:10.937Z,98356.78
2023-05-05T09:32:45.933Z,98358.25
2023-05-05T09:35:12.744Z,98361.06
2023-05-05T09:37:39.328Z,98355.22
2023-05-05T09:40:09.071Z,98346.56
2023-05-05T09:42:37.561Z,98348.75
2023-05-05T09:45:19.117Z,98352.16
2023-05-05T09:47:46.787Z,98345.25
2023-05-05T09:50:18.622Z,98345.06
2023-05-05T09:53:02.040Z,98349.72
2023-05-05T09:55:29.047Z,98355.41
2023-05-05T09:57:55.698Z,98343.06
2023-05-05T10:00:22.667Z,98341.94
2023-05-05T10:02:49.292Z,98344.97
2023-05-05T10:05:17.892Z,98348.81
2023-05-05T10:07:46.489Z,98347.47
2023-05-05T10:10:15.195Z,98335.53
2023-05-05T10:12:42.247Z,98342.13
2023-05-05T10:15:10.702Z,98342.50
2023-05-05T10:17:57.788Z,98341.47
2023-05-05T10:20:32.967Z,98343.19
2023-05-05T10:23:02.470Z,98326.97
2023-05-05T10:25:31.310Z,98324.69
2023-05-05T10:28:00.804Z,98331.00
2023-05-05T10:30:31.931Z,98318.44
2023-05-05T10:33:30.298Z,98323.69
2023-05-05T10:36:01.424Z,98326.19
2023-05-05T10:38:30.774Z,98318.94
2023-05-05T10:40:59.918Z,98317.78
2023-05-05T10:43:28.184Z,98323.41
2023-05-05T10:45:55.631Z,98310.47
2023-05-05T10:49:05.584Z,98305.75
2023-05-05T10:51:50.640Z,98306.41
2023-05-05T10:54:28.207Z,98299.41
2023-05-05T10:56:54.904Z,98294.88
2023-05-05T10:59:39.256Z,98285.38
2023-05-05T11:02:23.944Z,98292.72
2023-05-05T11:05:09.492Z,98288.38
2023-05-05T11:07:37.456Z,98288.06
2023-05-05T11:10:06.034Z,98279.78
2023-05-05T11:12:53.375Z,98273.50
2023-05-05T11:15:26.196Z,98270.44
2023-05-05T11:17:57.124Z,98256.75
2023-05-05T11:20:39.772Z,98259.03
2023-05-05T11:23:06.554Z,98250.97
2023-05-05T11:25:42.079Z,98248.47
2023-05-05T11:28:17.269Z,98252.31
2023-05-05T11:30:59.435Z,98254.66
2023-05-05T11:33:33.317Z,98249.47
2023-05-05T11:36:07.533Z,98237.75
2023-05-05T11:38:37.270Z,98248.50
2023-05-05T11:41:09.734Z,98249.75
2023-05-05T11:43:36.882Z,98251.16
2023-05-05T11:46:13.806Z,98249.44
2023-05-05T11:48:52.718Z,98247.28
2023-05-05T11:51:19.508Z,98244.03
2023-05-05T11:53:48.655Z,98243.81
2023-05-05T11:56:19.031Z,98247.44
2023-05-05T11:58:46.693Z,98243.44
2023-05-05T12:01:13.844Z,98243.56
2023-05-05T12:03:40.910Z,98256.94
2023-05-05T12:06:08.499Z,98259.38
2023-05-05T12:08:39.420Z,98260.69
2023-05-05T12:11:08.087Z,98268.72
2023-05-05T12:13:34.871Z,98252.06
2023-05-05T12:16:11.030Z,98256.63
2023-05-05T12:18:37.771Z,98254.06
2023-05-05T12:21:20.371Z,98254.47
2023-05-05T12:23:46.922Z,98257.41
2023-05-05T12:26:42.724Z,98255.22
2023-05-05T12:29:09.197Z,98255.44
2023-05-05T12:31:41.352Z,98239.00
2023-05-05T12:34:11.533Z,98247.94
2023-05-05T12:36:38.776Z,98241.16
2023-05-05T12:39:05.613Z,98245.38
2023-05-05T12:41:32.868Z,98244.91
2023-05-05T12:44:00.842Z,98242.84
2023-05-05T12:46:29.715Z,98236.63
2023-05-05T12:49:05.318Z,98242.16
2023-05-05T12:51:32.956Z,98234.91
2023-05-05T12:54:03.010Z,98238.94
2023-05-05T12:56:41.370Z,98241.63
2023-05-05T12:59:09.656Z,98239.03
2023-05-05T13:01:47.642Z,98238.94
2023-05-05T13:04:14.894Z,98243.69
2023-05-05T13:06:46.023Z,98237.00
2023-05-05T13:09:45.959Z,98234.28
2023-05-05T13:12:13.023Z,98234.78
2023-05-05T13:14:40.755Z,98237.91
2023-05-05T13:17:07.752Z,98230.38
2023-05-05T13:19:35.864Z,98239.97
2023-05-05T13:22:02.414Z,98230.44
2023-05-05T13:24:42.089Z,98230.59
2023-05-05T13:27:09.375Z,98230.47
2023-05-05T13:29:36.079Z,98234.84
2023-05-05T13:32:03.030Z,98226.41
2023-05-05T13:34:29.782Z,98235.66
2023-05-05T13:36:56.368Z,98234.06
2023-05-05T13:39:22.948Z,98237.78
2023-05-05T13:41:49.645Z,98237.47
2023-05-05T13:44:16.408Z,98232.63
2023-05-05T13:46:43.134Z,98232.25
2023-05-05T13:49:09.820Z,98230.06
2023-05-05T13:51:37.996Z,98229.84
2023-05-05T13:54:05.258Z,98226.22
2023-05-05T13:56:31.995Z,98217.84
2023-05-05T13:58:58.601Z,98217.84
2023-05-05T14:01:25.847Z,98220.53
2023-05-05T14:03:52.855Z,98219.84
2023-05-05T14:06:20.115Z,98211.59
2023-05-05T14:08:46.744Z,98206.97
2023-05-05T14:11:13.815Z,98211.47
2023-05-05T14:13:40.664Z,98205.53
2023-05-05T14:16:07.348Z,98208.94
2023-05-05T14:18:34.050Z,98192.31
2023-05-05T14:21:00.845Z,98199.53
2023-05-05T14:23:27.399Z,98188.97
2023-05-05T14:25:54.613Z,98198.91
2023-05-05T14:28:21.176Z,98201.47
2023-05-05T14:30:47.683Z,98199.63
2023-05-05T14:33:14.149Z,98199.16
2023-05-05T14:35:40.811Z,98193.47
2023-05-05T14:38:07.467Z,98198.78
2023-05-05T14:40:34.059Z,98194.94
2023-05-05T14:43:01.910Z,98189.09
2023-05-05T14:45:29.664Z,98193.59
2023-05-05T14:47:56.305Z,98197.94
2023-05-05T14:50:23.017Z,98192.00
2023-05-05T14:52:49.529Z,98195.09
2023-05-05T14:55:16.242Z,98200.91
2023-05-05T14:57:42.708Z,98196.81
2023-05-05T15:00:10.935Z,98192.66
2023-05-05T15:02:37.677Z,98186.13
2023-05-05T15:05:05.088Z,98189.25
2023-05-05T15:07:31.646Z,98191.94
2023-05-05T15:09:58.102Z,98191.38
2023-05-05T15:12:25.893Z,98188.66
2023-05-05T15:14:52.455Z,98183.06
2023-05-05T15:17:18.942Z,98182.16
2023-05-05T15:19:45.423Z,98176.34
2023-05-05T15:22:11.888Z,98183.72
2023-05-05T15:24:38.378Z,98175.84
2023-05-05T15:27:04.850Z,98180.03
2023-05-05T15:29:31.397Z,98178.00
2023-05-05T15:31:57.911Z,98166.09
2023-05-05T15:34:24.538Z,98170.84
2023-05-05T15:36:51.446Z,98174.28
2023-05-05T15:39:18.034Z,98172.50
2023-05-05T15:41:44.608Z,98163.38
2023-05-05T15:44:14.007Z,98166.78
2023-05-05T15:46:41.130Z,98167.53
2023-05-05T15:49:07.706Z,98149.97
2023-05-05T15:51:34.366Z,98161.47
2023-05-05T15:54:00.912Z,98171.19
2023-05-05T15:56:27.560Z,98177.00
2023-05-05T15:58:54.295Z,98168.72
2023-05-05T16:01:21.093Z,98152.69
2023-05-05T16:03:47.716Z,98150.75
2023-05-05T16:06:14.340Z,98136.94
2023-05-05T16:08:41.006Z,98152.84
2023-05-05T16:11:07.500Z,98162.13
2023-05-05T16:13:34.050Z,98164.63
2023-05-05T16:16:00.575Z,98174.28
2023-05-05T16:18:27.153Z,98169.00
2023-05-05T16:20:53.619Z,98161.72
2023-05-05T16:23:20.197Z,98167.66
2023-05-05T16:25:46.737Z,98161.94
2023-05-05T16:28:13.232Z,98164.50
2023-05-05T16:30:39.923Z,98159.78
2023-05-05T16:33:06.855Z,98150.13
2023-05-05T16:35:33.598Z,98151.19
2023-05-05T16:38:00.205Z,98147.81
2023-05-05T16:40:26.820Z,98151.47
2023-05-05T16:42:53.303Z,98110.75
2023-05-05T16:45:19.798Z,98142.97
2023-05-05T16:47:46.390Z,98125.06
2023-05-05T16:50:13.013Z,98152.69
2023-05-05T16:52:39.542Z,98123.56
2023-05-05T16:55:06.432Z,98146.78
2023-05-05T16:57:33.091Z,98158.28
2023-05-05T16:59:59.692Z,98158.78
2023-05-05T17:02:26.674Z,98142.81
2023-05-05T17:05:12.488Z,98146.13
2023-05-05T17:07:59.606Z,98150.59
2023-05-05T17:10:46.697Z,98137.25
2023-05-05T17:13:33.530Z,98122.41
2023-05-05T17:16:20.429Z,98138.81
2023-05-05T17:19:07.275Z,98098.06
2023-05-05T17:21:55.113Z,98125.63
2023-05-05T17:24:42.945Z,98107.59
2023-05-05T17:27:29.738Z,98101.28
2023-05-05T17:30:17.318Z,98121.84
2023-05-05T17:33:04.156Z,98128.69
2023-05-05T17:35:51.063Z,98122.94
2023-05-05T17:38:38.023Z,98103.94
2023-05-05T17:41:25.624Z,98110.66
2023-05-05T17:44:12.481Z,98118.25
2023-05-05T17:46:59.366Z,98128.66
2023-05-05T17:49:46.175Z,98098.28
2023-05-05T17:52:33.090Z,98119.97
2023-05-05T17:55:20.048Z,98096.16
2023-05-05T17:58:07.037Z,98091.13
2023-05-05T18:00:53.953Z,98080.81
2023-05-05T18:03:41.215Z,98105.63
2023-05-05T18:06:29.285Z,98080.91
2023-05-05T18:09:16.646Z,98093.88
2023-05-05T18:12:03.772Z,98100.03
2023-05-05T18:14:50.587Z,98096.22
2023-05-05T18:17:37.484Z,98102.19
2023-05-05T18:20:24.363Z,98100.75
2023-05-05T18:23:11.271Z,98086.50
2023-05-05T18:25:58.130Z,98101.50
2023-05-05T18:28:44.967Z,98113.06
2023-05-05T18:31:31.880Z,98098.97
2023-05-05T18:34:20.348Z,98097.88
2023-05-05T18:37:07.262Z,98093.06
2023-05-05T18:39:54.061Z,98088.56
2023-05-05T18:42:41.561Z,98110.50
2023-05-05T18:45:28.574Z,98112.19
2023-05-05T18:48:15.505Z,98078.53
2023-05-05T18:51:05.773Z,98132.00
2023-05-05T18:53:52.775Z,98137.97
2023-05-05T18:56:39.833Z,98128.22
2023-05-05T18:59:27.303Z,98140.84
2023-05-05T19:02:14.153Z,98145.94
2023-05-05T19:05:01.137Z,98137.16
2023-05-05T19:07:48.071Z,98155.22
2023-05-05T19:10:36.440Z,98190.19
2023-05-05T19:13:23.305Z,98189.66
2023-05-05T19:16:10.996Z,98194.75
2023-05-05T19:18:59.981Z,98232.34
2023-05-05T19:21:46.859Z,98248.66
2023-05-05T19:24:37.397Z,98222.91
2023-05-05T19:27:24.449Z,98271.94
2023-05-05T19:30:11.629Z,98288.03
2023-05-05T19:33:00.843Z,98283.66
2023-05-05T19:35:47.918Z,98291.72
2023-05-05T19:38:34.802Z,98291.56
2023-05-05T19:41:21.649Z,98285.75
2023-05-05T19:44:08.540Z,98291.81
